Time;durP1;ratioP1;P1;durP2;ratioP2;P2;SDS_P1;SDS_P2;PMS_P1;PMS_P2;Temp;Humidity;BMP_temperature;BMP_pressure;BME280_temperature;BME280_humidity;BME280_pressure;Samples;Min_cycle;Max_cycle;Signal;HPM_P1;HPM_P2
2022/08/13 00:02:19;0.00;0.00;0.62;0.00;0.00;0.62;6.90;4.70;;;29.70;24.10;;;;;;2187538;63;20632;-61
2022/08/13 00:05:06;0.00;0.00;0.62;0.00;0.00;0.62;5.70;4.77;;;29.60;23.60;;;;;;2187699;63;20391;-60
2022/08/13 00:07:53;0.00;0.00;0.62;0.00;0.00;0.62;6.50;4.30;;;29.60;23.60;;;;;;2187989;63;20387;-61
2022/08/13 00:10:38;0.00;0.00;0.62;0.00;0.00;0.62;5.17;3.73;;;29.60;23.50;;;;;;2185741;63;20456;-62
2022/08/13 00:13:29;0.00;0.00;0.62;0.00;0.00;0.62;5.30;4.40;;;29.60;23.50;;;;;;1676029;74;20502;-61
2022/08/13 00:16:14;0.00;0.00;0.62;0.00;0.00;0.62;6.03;3.97;;;29.70;23.40;;;;;;2268782;61;20382;-61
2022/08/13 00:18:59;0.00;0.00;0.62;0.00;0.00;0.62;5.63;4.93;;;29.70;23.50;;;;;;2269184;61;20398;-60
2022/08/13 00:21:43;0.00;0.00;0.62;0.00;0.00;0.62;5.43;4.17;;;29.70;23.50;;;;;;2268384;61;20375;-61
2022/08/13 00:24:29;0.00;0.00;0.62;0.00;0.00;0.62;5.87;4.20;;;29.80;23.50;;;;;;2268830;61;20399;-61
2022/08/13 00:27:14;0.00;0.00;0.62;0.00;0.00;0.62;4.20;3.80;;;29.80;23.50;;;;;;2268205;61;20357;-61
2022/08/13 00:30:02;0.00;0.00;0.62;0.00;0.00;0.62;3.80;3.40;;;29.80;23.50;;;;;;2268849;61;20456;-61
2022/08/13 00:32:47;0.00;0.00;0.62;0.00;0.00;0.62;5.37;4.40;;;29.80;23.50;;;;;;2268713;61;20763;-61
2022/08/13 00:35:32;0.00;0.00;0.62;0.00;0.00;0.62;5.43;4.30;;;29.90;23.50;;;;;;2268649;61;20371;-62
2022/08/13 00:38:20;0.00;0.00;0.62;0.00;0.00;0.62;4.50;4.10;;;29.90;23.50;;;;;;2268779;61;20642;-62
2022/08/13 00:41:06;0.00;0.00;0.62;0.00;0.00;0.62;5.67;3.90;;;29.90;23.50;;;;;;2269164;61;20617;-62
2022/08/13 00:43:50;0.00;0.00;0.62;0.00;0.00;0.62;4.27;3.50;;;29.90;23.50;;;;;;2268465;61;20657;-61
2022/08/13 00:46:39;0.00;0.00;0.62;0.00;0.00;0.62;4.07;3.67;;;30.00;23.50;;;;;;2268860;61;20388;-61
2022/08/13 00:49:24;0.00;0.00;0.62;0.00;0.00;0.62;5.70;3.87;;;30.00;23.50;;;;;;2268626;61;20372;-61
2022/08/13 00:52:10;0.00;0.00;0.62;0.00;0.00;0.62;4.57;4.17;;;30.00;23.50;;;;;;2268580;61;20391;-61
2022/08/13 00:54:59;0.00;0.00;0.62;0.00;0.00;0.62;4.53;3.80;;;30.10;23.50;;;;;;2269091;61;20403;-62
2022/08/13 00:57:45;0.00;0.00;0.62;0.00;0.00;0.62;4.47;3.80;;;30.10;23.50;;;;;;2268548;61;20360;-61
2022/08/13 01:00:30;0.00;0.00;0.62;0.00;0.00;0.62;3.70;3.03;;;30.10;23.40;;;;;;2268628;61;20399;-61
2022/08/13 01:03:18;0.00;0.00;0.62;0.00;0.00;0.62;4.03;3.37;;;30.10;23.40;;;;;;2269049;61;20444;-61
2022/08/13 01:06:05;0.00;0.00;0.62;0.00;0.00;0.62;3.97;3.63;;;30.20;23.50;;;;;;2268205;61;20388;-61
2022/08/13 01:08:53;0.00;0.00;0.62;0.00;0.00;0.62;4.50;3.70;;;30.20;23.40;;;;;;2268827;61;20579;-61
2022/08/13 01:11:38;0.00;0.00;0.62;0.00;0.00;0.62;5.10;3.67;;;30.20;23.50;;;;;;2268408;61;20384;-61
2022/08/13 01:14:24;0.00;0.00;0.62;0.00;0.00;0.62;5.10;4.33;;;30.20;23.70;;;;;;2268621;61;20395;-61
2022/08/13 01:17:12;0.00;0.00;0.62;0.00;0.00;0.62;4.87;3.87;;;30.20;23.80;;;;;;2268775;61;20365;-60
2022/08/13 01:19:58;0.00;0.00;0.62;0.00;0.00;0.62;5.47;4.40;;;30.20;23.80;;;;;;2268534;61;20375;-61
2022/08/13 01:22:45;0.00;0.00;0.62;0.00;0.00;0.62;4.57;3.83;;;30.20;23.70;;;;;;2268326;61;20380;-62
2022/08/13 01:25:31;0.00;0.00;0.62;0.00;0.00;0.62;4.30;3.77;;;30.20;23.60;;;;;;2266387;61;20469;-61
2022/08/13 01:28:18;0.00;0.00;0.62;0.00;0.00;0.62;4.63;3.73;;;30.20;23.60;;;;;;2265481;61;20408;-60
2022/08/13 01:31:05;0.00;0.00;0.62;0.00;0.00;0.62;4.57;3.77;;;30.20;23.50;;;;;;2265933;61;20381;-62
2022/08/13 01:33:55;0.00;0.00;0.62;0.00;0.00;0.62;3.57;3.27;;;30.20;23.50;;;;;;2265791;61;20733;-61
2022/08/13 01:36:40;0.00;0.00;0.62;0.00;0.00;0.62;5.10;3.43;;;30.30;23.50;;;;;;2265868;61;20377;-61
2022/08/13 01:39:28;0.00;0.00;0.62;0.00;0.00;0.62;4.07;3.67;;;30.30;23.40;;;;;;2266209;61;20399;-61
2022/08/13 01:42:20;0.00;0.00;0.62;0.00;0.00;0.62;3.70;3.40;;;30.30;23.40;;;;;;2265596;61;20377;-62
2022/08/13 01:45:07;0.00;0.00;0.62;0.00;0.00;0.62;4.10;3.70;;;30.30;23.40;;;;;;2265891;61;20358;-61
2022/08/13 01:50:55;0.00;0.00;0.62;0.00;0.00;0.62;4.37;3.53;;;30.30;23.40;;;;;;2265767;61;20588;-60
2022/08/13 01:53:42;0.00;0.00;0.62;0.00;0.00;0.62;4.63;3.47;;;30.30;23.40;;;;;;2265794;61;20360;-61
2022/08/13 01:56:31;0.00;0.00;0.62;0.00;0.00;0.62;4.87;4.03;;;30.40;23.50;;;;;;2265660;61;20377;-60
2022/08/13 01:59:16;0.00;0.00;0.62;0.00;0.00;0.62;4.33;3.93;;;30.40;23.60;;;;;;2265771;61;20687;-61
2022/08/13 02:02:01;0.00;0.00;0.62;0.00;0.00;0.62;4.50;4.00;;;30.40;23.80;;;;;;2266056;61;20626;-62
2022/08/13 02:04:46;0.00;0.00;0.62;0.00;0.00;0.62;6.57;4.50;;;30.30;23.70;;;;;;2265354;61;20353;-61
2022/08/13 02:07:32;0.00;0.00;0.62;0.00;0.00;0.62;5.03;3.87;;;30.30;23.70;;;;;;2265777;61;20393;-61
2022/08/13 02:10:19;0.00;0.00;0.62;0.00;0.00;0.62;4.80;3.70;;;30.30;23.70;;;;;;2265945;61;20433;-61
2022/08/13 02:13:10;0.00;0.00;0.62;0.00;0.00;0.62;5.17;4.20;;;30.30;23.60;;;;;;2265757;61;20381;-61
2022/08/13 02:15:55;0.00;0.00;0.62;0.00;0.00;0.62;4.50;3.67;;;30.30;23.50;;;;;;2265766;61;20376;-62
2022/08/13 02:18:40;0.00;0.00;0.62;0.00;0.00;0.62;4.60;3.97;;;30.40;23.60;;;;;;2265535;61;20361;-60
2022/08/13 02:21:30;0.00;0.00;0.62;0.00;0.00;0.62;4.20;3.80;;;30.40;23.60;;;;;;2265780;61;20449;-61
2022/08/13 02:24:15;0.00;0.00;0.62;0.00;0.00;0.62;4.17;3.77;;;30.40;23.50;;;;;;2266030;61;20365;-61
2022/08/13 02:27:00;0.00;0.00;0.62;0.00;0.00;0.62;4.30;3.33;;;30.40;23.50;;;;;;2265230;61;20435;-61
2022/08/13 02:29:47;0.00;0.00;0.62;0.00;0.00;0.62;4.20;3.60;;;30.40;23.50;;;;;;2265776;61;20441;-62
2022/08/13 02:32:33;0.00;0.00;0.62;0.00;0.00;0.62;6.23;3.73;;;30.40;23.50;;;;;;2265936;61;20385;-61
2022/08/13 02:35:18;0.00;0.00;0.62;0.00;0.00;0.62;5.33;3.73;;;30.40;23.50;;;;;;2265513;61;20403;-61
2022/08/13 02:38:04;0.00;0.00;0.62;0.00;0.00;0.62;3.77;3.37;;;30.40;23.50;;;;;;2265691;61;20404;-61
2022/08/13 02:43:52;0.00;0.00;0.62;0.00;0.00;0.62;4.20;3.80;;;30.40;23.80;;;;;;2265523;61;20392;-61
2022/08/13 02:46:39;0.00;0.00;0.62;0.00;0.00;0.62;4.70;4.30;;;30.40;23.90;;;;;;2265906;61;20638;-61
2022/08/13 02:49:24;0.00;0.00;0.62;0.00;0.00;0.62;5.20;4.00;;;30.40;24.10;;;;;;2265354;61;20771;-61
2022/08/13 02:52:09;0.00;0.00;0.62;0.00;0.00;0.62;5.10;4.00;;;30.40;24.20;;;;;;2265477;61;20404;-60
2022/08/13 02:54:54;0.00;0.00;0.62;0.00;0.00;0.62;4.50;3.73;;;30.40;24.10;;;;;;2265906;61;20353;-61
2022/08/13 02:57:39;0.00;0.00;0.62;0.00;0.00;0.62;5.43;4.27;;;30.40;24.10;;;;;;2265726;61;20393;-61
2022/08/13 03:00:24;0.00;0.00;0.62;0.00;0.00;0.62;4.80;4.30;;;30.30;24.10;;;;;;2265605;61;20752;-61
2022/08/13 03:03:11;0.00;0.00;0.62;0.00;0.00;0.62;4.93;4.20;;;30.30;24.20;;;;;;2265446;61;20403;-61
2022/08/13 03:05:55;0.00;0.00;0.62;0.00;0.00;0.62;4.67;4.27;;;30.30;24.10;;;;;;2265341;61;20373;-61
2022/08/13 03:08:40;0.00;0.00;0.62;0.00;0.00;0.62;4.00;3.30;;;30.30;24.00;;;;;;2265842;61;20353;-62
2022/08/13 03:11:25;0.00;0.00;0.62;0.00;0.00;0.62;4.63;3.70;;;30.30;24.00;;;;;;2264989;61;20427;-61
2022/08/13 03:14:11;0.00;0.00;0.62;0.00;0.00;0.62;4.30;3.70;;;30.30;24.00;;;;;;2265700;61;20356;-62
2022/08/13 03:16:56;0.00;0.00;0.62;0.00;0.00;0.62;5.70;4.53;;;30.30;24.00;;;;;;2265504;61;20371;-62
2022/08/13 03:19:42;0.00;0.00;0.62;0.00;0.00;0.62;4.73;4.00;;;30.30;24.00;;;;;;2265224;61;20422;-62
2022/08/13 03:22:27;0.00;0.00;0.62;0.00;0.00;0.62;3.40;3.10;;;30.30;24.00;;;;;;2265438;61;20761;-61
2022/08/13 03:25:11;0.00;0.00;0.62;0.00;0.00;0.62;4.20;3.80;;;30.30;24.00;;;;;;2265453;61;20425;-62
2022/08/13 03:28:01;0.00;0.00;0.62;0.00;0.00;0.62;3.87;3.33;;;30.30;24.00;;;;;;2265647;61;20572;-61
2022/08/13 03:30:46;0.00;0.00;0.62;0.00;0.00;0.62;3.57;3.23;;;30.30;24.00;;;;;;2265918;61;20671;-61
2022/08/13 03:33:31;0.00;0.00;0.62;0.00;0.00;0.62;5.70;4.00;;;30.30;23.90;;;;;;2264577;61;20380;-62
2022/08/13 03:36:17;0.00;0.00;0.62;0.00;0.00;0.62;4.17;3.70;;;30.30;23.90;;;;;;2265401;61;20399;-61
2022/08/13 03:39:03;0.00;0.00;0.62;0.00;0.00;0.62;4.17;3.77;;;30.30;23.90;;;;;;2265965;61;20427;-62
2022/08/13 03:41:48;0.00;0.00;0.62;0.00;0.00;0.62;4.53;4.00;;;30.30;23.90;;;;;;2265299;61;20369;-61
2022/08/13 03:44:33;0.00;0.00;0.62;0.00;0.00;0.62;4.30;3.90;;;30.30;23.90;;;;;;2265572;61;20357;-61
2022/08/13 03:47:18;0.00;0.00;0.62;0.00;0.00;0.62;3.87;3.47;;;30.30;23.90;;;;;;2265329;61;20392;-62
2022/08/13 03:50:06;0.00;0.00;0.62;0.00;0.00;0.62;3.83;3.40;;;30.30;23.90;;;;;;2265479;61;20392;-62
2022/08/13 03:52:52;0.00;0.00;0.62;0.00;0.00;0.62;4.20;3.80;;;30.30;23.90;;;;;;2265797;61;20396;-61
2022/08/13 03:55:41;0.00;0.00;0.62;0.00;0.00;0.62;4.40;3.73;;;30.40;24.00;;;;;;2264922;61;20357;-60
2022/08/13 03:58:28;0.00;0.00;0.62;0.00;0.00;0.62;4.93;4.30;;;30.40;24.00;;;;;;2265428;61;20353;-62
2022/08/13 04:01:17;0.00;0.00;0.62;0.00;0.00;0.62;4.63;3.93;;;30.40;24.00;;;;;;2265883;61;20755;-62
2022/08/13 04:04:04;0.00;0.00;0.62;0.00;0.00;0.62;6.70;4.20;;;30.40;23.90;;;;;;2265480;61;20764;-62
2022/08/13 04:06:48;0.00;0.00;0.62;0.00;0.00;0.62;4.57;4.17;;;30.40;24.00;;;;;;2265005;61;20357;-61
2022/08/13 04:09:34;0.00;0.00;0.62;0.00;0.00;0.62;4.87;3.80;;;30.40;24.00;;;;;;2265387;61;20361;-61
2022/08/13 04:12:19;0.00;0.00;0.62;0.00;0.00;0.62;3.60;3.30;;;30.40;24.00;;;;;;2265466;61;20396;-61
2022/08/13 04:15:06;0.00;0.00;0.62;0.00;0.00;0.62;3.47;3.17;;;30.40;24.00;;;;;;2266021;61;20460;-61
2022/08/13 04:17:52;0.00;0.00;0.62;0.00;0.00;0.62;3.43;3.07;;;30.40;24.00;;;;;;2264929;61;20356;-61
2022/08/13 04:20:37;0.00;0.00;0.62;0.00;0.00;0.62;4.30;3.60;;;30.40;23.90;;;;;;2265434;61;20356;-60
2022/08/13 04:23:22;0.00;0.00;0.62;0.00;0.00;0.62;3.97;3.57;;;30.40;24.00;;;;;;2265736;61;20353;-61
2022/08/13 04:26:11;0.00;0.00;0.62;0.00;0.00;0.62;3.77;3.47;;;30.40;24.00;;;;;;2265244;61;20435;-60
2022/08/13 04:28:57;0.00;0.00;0.62;0.00;0.00;0.62;4.23;3.83;;;30.40;24.00;;;;;;2265786;61;20428;-61
2022/08/13 04:31:44;0.00;0.00;0.62;0.00;0.00;0.62;3.50;3.20;;;30.40;23.90;;;;;;2265051;61;20385;-61
2022/08/13 04:34:29;0.00;0.00;0.62;0.00;0.00;0.62;4.07;3.10;;;30.40;23.90;;;;;;2265507;61;20416;-61
2022/08/13 04:37:14;0.00;0.00;0.62;0.00;0.00;0.62;3.60;3.30;;;30.40;24.00;;;;;;2265953;61;20361;-61
2022/08/13 04:39:59;0.00;0.00;0.62;0.00;0.00;0.62;3.17;2.87;;;30.40;23.90;;;;;;2265000;61;20352;-61
2022/08/13 04:42:49;0.00;0.00;0.62;0.00;0.00;0.62;3.93;3.30;;;30.40;23.90;;;;;;2265339;61;20373;-61
2022/08/13 04:45:34;0.00;0.00;0.62;0.00;0.00;0.62;4.07;3.13;;;30.40;24.00;;;;;;2265730;61;20588;-60
2022/08/13 04:48:19;0.00;0.00;0.62;0.00;0.00;0.62;4.10;3.70;;;30.40;23.90;;;;;;2265037;61;20587;-60
2022/08/13 04:51:05;0.00;0.00;0.62;0.00;0.00;0.62;3.47;3.17;;;30.40;23.90;;;;;;2265311;61;20360;-61
2022/08/13 04:53:50;0.00;0.00;0.62;0.00;0.00;0.62;3.37;3.07;;;30.40;24.00;;;;;;2265211;61;20372;-60
2022/08/13 04:56:34;0.00;0.00;0.62;0.00;0.00;0.62;3.33;3.00;;;30.40;24.00;;;;;;2265362;61;20352;-68
2022/08/13 04:59:22;0.00;0.00;0.62;0.00;0.00;0.62;3.70;3.10;;;30.40;24.00;;;;;;2266171;61;20558;-65
2022/08/13 05:02:07;0.00;0.00;0.62;0.00;0.00;0.62;3.17;2.87;;;30.40;24.00;;;;;;2265629;61;20369;-62
2022/08/13 05:04:54;0.00;0.00;0.62;0.00;0.00;0.62;3.13;2.83;;;30.40;24.00;;;;;;2266023;61;20380;-63
2022/08/13 05:07:39;0.00;0.00;0.62;0.00;0.00;0.62;3.53;3.23;;;30.40;23.90;;;;;;2265964;61;20352;-62
2022/08/13 05:10:24;0.00;0.00;0.62;0.00;0.00;0.62;4.03;3.03;;;30.40;23.90;;;;;;2265580;61;20388;-63
2022/08/13 05:13:27;0.00;0.00;0.62;0.00;0.00;0.62;5.17;2.97;;;30.40;23.90;;;;;;2265891;61;20472;-63
2022/08/13 05:16:16;0.00;0.00;0.62;0.00;0.00;0.62;4.20;2.73;;;30.40;24.00;;;;;;2265789;61;20735;-61
2022/08/13 05:19:03;0.00;0.00;0.62;0.00;0.00;0.62;2.90;2.60;;;30.40;23.90;;;;;;2265985;61;20503;-62
2022/08/13 05:21:48;0.00;0.00;0.62;0.00;0.00;0.62;2.83;2.53;;;30.40;23.90;;;;;;2266257;61;20381;-61
2022/08/13 05:24:33;0.00;0.00;0.62;0.00;0.00;0.62;3.40;3.10;;;30.40;23.90;;;;;;2265547;61;20365;-62
2022/08/13 05:27:19;0.00;0.00;0.62;0.00;0.00;0.62;4.23;2.70;;;30.40;23.90;;;;;;2265873;61;20356;-60
2022/08/13 05:30:06;0.00;0.00;0.62;0.00;0.00;0.62;3.10;2.80;;;30.40;23.90;;;;;;2266210;61;20423;-60
2022/08/13 05:32:55;0.00;0.00;0.62;0.00;0.00;0.62;3.03;2.73;;;30.40;24.00;;;;;;2265944;61;20523;-59
2022/08/13 05:35:41;0.00;0.00;0.62;0.00;0.00;0.62;3.53;2.93;;;30.40;23.90;;;;;;2265841;61;20365;-60
2022/08/13 05:38:28;0.00;0.00;0.62;0.00;0.00;0.62;2.73;2.53;;;30.40;23.90;;;;;;2265699;61;20701;-60
2022/08/13 05:41:14;0.00;0.00;0.62;0.00;0.00;0.62;3.57;3.03;;;30.40;23.90;;;;;;2262646;61;20362;-60
2022/08/13 05:44:00;0.00;0.00;0.62;0.00;0.00;0.62;2.77;2.57;;;30.40;23.90;;;;;;2266290;61;20423;-60
2022/08/13 05:46:44;0.00;0.00;0.62;0.00;0.00;0.62;3.23;2.50;;;30.40;24.00;;;;;;2265413;61;21033;-59
2022/08/13 05:49:31;0.00;0.00;0.62;0.00;0.00;0.62;4.03;2.87;;;30.40;23.90;;;;;;2265996;61;20361;-60
2022/08/13 05:52:16;0.00;0.00;0.62;0.00;0.00;0.62;4.70;2.70;;;30.40;24.00;;;;;;2266192;61;20439;-60
2022/08/13 05:55:02;0.00;0.00;0.62;0.00;0.00;0.62;2.67;2.47;;;30.40;24.00;;;;;;2265857;61;20445;-60
2022/08/13 05:57:47;0.00;0.00;0.62;0.00;0.00;0.62;4.20;2.87;;;30.40;24.00;;;;;;2265971;61;20377;-60
2022/08/13 06:03:37;0.00;0.00;0.62;0.00;0.00;0.62;2.70;2.50;;;30.40;24.00;;;;;;2265588;61;20361;-60
2022/08/13 06:06:24;0.00;0.00;0.62;0.00;0.00;0.62;3.87;3.10;;;30.40;23.90;;;;;;2266189;61;20364;-59
2022/08/13 06:09:09;0.00;0.00;0.62;0.00;0.00;0.62;2.70;2.50;;;30.40;23.90;;;;;;2265455;61;20725;-60
2022/08/13 06:11:54;0.00;0.00;0.62;0.00;0.00;0.62;3.47;3.00;;;30.40;23.90;;;;;;2265619;61;20389;-60
2022/08/13 06:14:38;0.00;0.00;0.62;0.00;0.00;0.62;2.83;2.53;;;30.40;23.90;;;;;;2266262;61;20357;-60
2022/08/13 06:17:24;0.00;0.00;0.62;0.00;0.00;0.62;2.60;2.40;;;30.40;23.90;;;;;;2265669;61;20353;-60
2022/08/13 06:20:11;0.00;0.00;0.62;0.00;0.00;0.62;3.80;2.67;;;30.40;23.90;;;;;;2265800;61;20716;-60
2022/08/13 06:22:59;0.00;0.00;0.62;0.00;0.00;0.62;3.13;2.83;;;30.40;23.90;;;;;;2265686;61;20373;-60
2022/08/13 06:25:44;0.00;0.00;0.62;0.00;0.00;0.62;3.00;2.70;;;30.40;23.90;;;;;;2265416;61;20702;-60
2022/08/13 06:28:31;0.00;0.00;0.62;0.00;0.00;0.62;3.20;2.67;;;30.40;23.80;;;;;;2266094;61;20377;-60
2022/08/13 06:31:16;0.00;0.00;0.62;0.00;0.00;0.62;3.03;2.27;;;30.40;23.80;;;;;;2265235;61;20444;-61
2022/08/13 06:34:01;0.00;0.00;0.62;0.00;0.00;0.62;3.03;2.60;;;30.40;23.80;;;;;;2265369;61;20576;-60
2022/08/13 06:36:46;0.00;0.00;0.62;0.00;0.00;0.62;3.20;2.87;;;30.40;23.80;;;;;;2266013;61;20713;-60
2022/08/13 06:39:34;0.00;0.00;0.62;0.00;0.00;0.62;2.77;2.57;;;30.40;23.80;;;;;;2265685;61;20392;-61
2022/08/13 06:42:21;0.00;0.00;0.62;0.00;0.00;0.62;3.00;2.80;;;30.40;23.80;;;;;;2265778;61;20377;-61
2022/08/13 06:45:08;0.00;0.00;0.62;0.00;0.00;0.62;2.60;2.40;;;30.40;23.80;;;;;;2265527;61;20361;-60
2022/08/13 06:47:53;0.00;0.00;0.62;0.00;0.00;0.62;2.70;2.47;;;30.40;23.80;;;;;;2265547;61;20592;-59
2022/08/13 06:50:38;0.00;0.00;0.62;0.00;0.00;0.62;3.10;2.67;;;30.40;23.80;;;;;;2266024;61;20361;-60
2022/08/13 06:53:23;0.00;0.00;0.62;0.00;0.00;0.62;2.70;2.50;;;30.40;23.80;;;;;;2264985;61;20380;-60
2022/08/13 06:56:13;0.00;0.00;0.62;0.00;0.00;0.62;2.33;2.13;;;30.40;23.70;;;;;;2265639;61;20407;-61
2022/08/13 06:58:58;0.00;0.00;0.62;0.00;0.00;0.62;2.80;2.50;;;30.40;23.70;;;;;;2266069;61;20468;-61
2022/08/13 07:01:46;0.00;0.00;0.62;0.00;0.00;0.62;2.80;2.60;;;30.40;23.70;;;;;;2265580;61;20380;-60
2022/08/13 07:04:31;0.00;0.00;0.62;0.00;0.00;0.62;2.73;2.43;;;30.40;23.70;;;;;;2265679;61;20365;-60
2022/08/13 07:07:17;0.00;0.00;0.62;0.00;0.00;0.62;2.73;2.53;;;30.40;23.70;;;;;;2265407;61;20341;-61
2022/08/13 07:10:04;0.00;0.00;0.62;0.00;0.00;0.62;2.73;2.53;;;30.40;23.70;;;;;;2264997;61;20366;-60
2022/08/13 07:12:51;0.00;0.00;0.62;0.00;0.00;0.62;2.37;2.17;;;30.40;23.70;;;;;;2265849;61;20799;-60
2022/08/13 07:15:36;0.00;0.00;0.62;0.00;0.00;0.62;3.10;2.80;;;30.40;23.70;;;;;;2265055;61;20532;-61
2022/08/13 07:18:22;0.00;0.00;0.62;0.00;0.00;0.62;2.50;2.30;;;30.40;23.70;;;;;;2265847;61;20357;-61
2022/08/13 07:21:10;0.00;0.00;0.62;0.00;0.00;0.62;2.70;2.50;;;30.40;23.70;;;;;;2265804;61;20760;-61
2022/08/13 07:23:57;0.00;0.00;0.62;0.00;0.00;0.62;2.80;2.60;;;30.40;23.70;;;;;;2265608;61;20711;-60
2022/08/13 07:26:42;0.00;0.00;0.62;0.00;0.00;0.62;4.40;2.83;;;30.40;23.70;;;;;;2265490;61;20574;-61
2022/08/13 07:29:28;0.00;0.00;0.62;0.00;0.00;0.62;2.63;2.43;;;30.40;23.70;;;;;;2265525;61;20365;-60
2022/08/13 07:32:12;0.00;0.00;0.62;0.00;0.00;0.62;2.73;2.50;;;30.40;23.70;;;;;;2265038;61;20388;-60
2022/08/13 07:34:58;0.00;0.00;0.62;0.00;0.00;0.62;2.63;2.43;;;30.40;23.60;;;;;;2265916;61;20399;-61
2022/08/13 07:37:43;0.00;0.00;0.62;0.00;0.00;0.62;3.97;2.40;;;30.40;23.70;;;;;;2265070;61;20396;-60
2022/08/13 07:40:30;0.00;0.00;0.62;0.00;0.00;0.62;2.97;2.60;;;30.40;23.60;;;;;;2265575;61;20755;-60
2022/08/13 07:43:19;0.00;0.00;0.62;0.00;0.00;0.62;2.90;2.63;;;30.40;23.60;;;;;;2265930;61;20749;-61
2022/08/13 07:46:10;0.00;0.00;0.62;0.00;0.00;0.62;3.30;3.00;;;30.40;23.60;;;;;;2265477;61;20365;-60
2022/08/13 07:48:55;0.00;0.00;0.62;0.00;0.00;0.62;2.53;2.23;;;30.40;23.60;;;;;;2265559;61;20385;-60
2022/08/13 07:51:43;0.00;0.00;0.62;0.00;0.00;0.62;3.27;2.50;;;30.40;23.60;;;;;;2265273;61;20407;-60
2022/08/13 07:54:28;0.00;0.00;0.62;0.00;0.00;0.62;3.03;2.83;;;30.40;23.70;;;;;;2265351;61;20414;-61
2022/08/13 07:57:13;0.00;0.00;0.62;0.00;0.00;0.62;2.63;2.43;;;30.40;23.70;;;;;;2265806;61;20356;-60
2022/08/13 07:59:58;0.00;0.00;0.62;0.00;0.00;0.62;3.70;2.90;;;30.40;23.70;;;;;;2264985;61;20427;-59
2022/08/13 08:02:45;0.00;0.00;0.62;0.00;0.00;0.62;3.30;2.90;;;30.40;23.70;;;;;;2265422;61;20584;-59
2022/08/13 08:05:34;0.00;0.00;0.62;0.00;0.00;0.62;3.53;2.97;;;30.40;23.70;;;;;;2265895;61;20431;-61
2022/08/13 08:08:19;0.00;0.00;0.62;0.00;0.00;0.62;3.20;2.77;;;30.40;23.70;;;;;;2265472;61;20364;-60
2022/08/13 08:11:06;0.00;0.00;0.62;0.00;0.00;0.62;2.90;2.70;;;30.30;23.60;;;;;;2265328;61;20393;-61
2022/08/13 08:13:51;0.00;0.00;0.62;0.00;0.00;0.62;3.17;2.90;;;30.40;23.70;;;;;;2265257;61;20439;-61
2022/08/13 08:16:37;0.00;0.00;0.62;0.00;0.00;0.62;3.47;3.10;;;30.40;23.70;;;;;;2265348;61;20612;-60
2022/08/13 08:19:23;0.00;0.00;0.62;0.00;0.00;0.62;5.83;2.87;;;30.40;23.70;;;;;;2265865;61;20469;-60
2022/08/13 08:22:11;0.00;0.00;0.62;0.00;0.00;0.62;3.30;3.00;;;30.40;23.70;;;;;;2264926;61;20381;-61
2022/08/13 08:24:56;0.00;0.00;0.62;0.00;0.00;0.62;2.57;2.37;;;30.40;23.70;;;;;;2265521;61;20384;-60
2022/08/13 08:27:42;0.00;0.00;0.62;0.00;0.00;0.62;3.20;2.90;;;30.40;23.70;;;;;;2265633;61;20364;-60
2022/08/13 08:30:27;0.00;0.00;0.62;0.00;0.00;0.62;3.50;3.20;;;30.40;23.70;;;;;;2265372;61;20442;-62
2022/08/13 08:33:13;0.00;0.00;0.62;0.00;0.00;0.62;3.27;2.60;;;30.40;23.70;;;;;;2265525;61;20723;-60
2022/08/13 08:36:02;0.00;0.00;0.62;0.00;0.00;0.62;2.63;2.43;;;30.40;23.80;;;;;;2266002;61;20499;-61
2022/08/13 08:45:00;0.00;0.00;0.62;0.00;0.00;0.62;2.73;2.53;;;30.40;23.80;;;;;;2265860;61;20353;-61
2022/08/13 08:47:47;0.00;0.00;0.62;0.00;0.00;0.62;3.13;2.83;;;30.40;23.80;;;;;;2266023;61;20436;-61
2022/08/13 08:50:32;0.00;0.00;0.62;0.00;0.00;0.62;3.13;2.83;;;30.40;23.80;;;;;;2265500;61;20364;-60
2022/08/13 08:53:21;0.00;0.00;0.62;0.00;0.00;0.62;3.13;2.83;;;30.50;23.80;;;;;;2266008;61;20456;-60
2022/08/13 08:56:08;0.00;0.00;0.62;0.00;0.00;0.62;3.60;3.30;;;30.50;23.90;;;;;;2266220;61;20476;-61
2022/08/13 08:58:55;0.00;0.00;0.62;0.00;0.00;0.62;3.40;3.10;;;30.50;24.00;;;;;;2265733;61;20406;-61
2022/08/13 09:01:42;0.00;0.00;0.62;0.00;0.00;0.62;3.33;3.03;;;30.50;23.90;;;;;;2266055;61;20380;-61
2022/08/13 09:04:28;0.00;0.00;0.62;0.00;0.00;0.62;3.90;3.10;;;30.50;23.90;;;;;;2265944;61;20705;-61
2022/08/13 09:07:14;0.00;0.00;0.62;0.00;0.00;0.62;3.57;3.20;;;30.50;24.00;;;;;;2265531;61;20356;-60
2022/08/13 09:10:01;0.00;0.00;0.62;0.00;0.00;0.62;3.97;3.30;;;30.50;24.00;;;;;;2266011;61;20369;-61
2022/08/13 09:12:48;0.00;0.00;0.62;0.00;0.00;0.62;3.60;3.30;;;30.50;24.10;;;;;;2265410;61;20393;-60
2022/08/13 09:15:35;0.00;0.00;0.62;0.00;0.00;0.62;3.60;3.30;;;30.50;24.20;;;;;;2265966;61;20368;-60
2022/08/13 09:18:21;0.00;0.00;0.62;0.00;0.00;0.62;3.90;3.60;;;30.50;24.20;;;;;;2266312;61;20741;-60
2022/08/13 09:21:06;0.00;0.00;0.62;0.00;0.00;0.62;4.00;3.70;;;30.50;24.20;;;;;;2265829;61;20709;-60
2022/08/13 09:23:52;0.00;0.00;0.62;0.00;0.00;0.62;4.40;3.83;;;30.60;24.30;;;;;;2265957;61;20468;-60
2022/08/13 09:26:39;0.00;0.00;0.62;0.00;0.00;0.62;4.27;3.87;;;30.60;24.30;;;;;;2266236;61;20361;-60
2022/08/13 09:29:24;0.00;0.00;0.62;0.00;0.00;0.62;3.70;3.40;;;30.60;24.30;;;;;;2265228;61;20388;-61
2022/08/13 09:32:10;0.00;0.00;0.62;0.00;0.00;0.62;4.10;3.80;;;30.60;24.30;;;;;;2265757;61;20408;-59
2022/08/13 09:34:55;0.00;0.00;0.62;0.00;0.00;0.62;4.13;3.80;;;30.60;24.40;;;;;;2265757;61;20472;-61
2022/08/13 09:37:41;0.00;0.00;0.62;0.00;0.00;0.62;3.93;3.63;;;30.60;24.40;;;;;;2265937;61;20376;-60
2022/08/13 09:40:29;0.00;0.00;0.62;0.00;0.00;0.62;4.87;3.97;;;30.60;24.50;;;;;;2266076;61;20361;-61
2022/08/13 09:43:19;0.00;0.00;0.62;0.00;0.00;0.62;4.83;4.20;;;30.60;24.50;;;;;;2265774;61;20627;-61
2022/08/13 09:46:05;0.00;0.00;0.62;0.00;0.00;0.62;5.63;4.17;;;30.70;24.70;;;;;;2265737;61;20733;-60
2022/08/13 09:48:51;0.00;0.00;0.62;0.00;0.00;0.62;4.80;4.40;;;30.70;24.70;;;;;;2266195;61;20650;-60
2022/08/13 09:51:35;0.00;0.00;0.62;0.00;0.00;0.62;4.90;4.50;;;30.70;24.80;;;;;;2265020;61;20453;-60
2022/08/13 09:54:22;0.00;0.00;0.62;0.00;0.00;0.62;6.57;4.33;;;30.70;24.80;;;;;;2265389;61;20449;-60
2022/08/13 09:57:07;0.00;0.00;0.62;0.00;0.00;0.62;7.20;4.03;;;30.70;25.50;;;;;;2265717;61;20377;-60
2022/08/13 09:59:53;0.00;0.00;0.62;0.00;0.00;0.62;5.67;5.17;;;30.70;25.00;;;;;;2265889;61;20389;-61
2022/08/13 10:02:39;0.00;0.00;0.62;0.00;0.00;0.62;4.13;3.83;;;30.80;25.10;;;;;;2265862;61;20385;-61
2022/08/13 10:05:25;0.00;0.00;0.62;0.00;0.00;0.62;7.07;4.33;;;30.70;25.00;;;;;;2265728;61;21008;-61
2022/08/13 10:08:16;0.00;0.00;0.62;0.00;0.00;0.62;5.30;4.90;;;30.80;25.20;;;;;;2265729;61;20365;-61
2022/08/13 10:11:01;0.00;0.00;0.62;0.00;0.00;0.62;5.67;5.17;;;30.80;25.30;;;;;;2266110;61;20361;-61
2022/08/13 10:13:47;0.00;0.00;0.62;0.00;0.00;0.62;5.30;4.90;;;30.80;25.30;;;;;;2265433;61;20430;-60
2022/08/13 10:16:35;0.00;0.00;0.62;0.00;0.00;0.62;4.60;4.20;;;30.80;25.30;;;;;;2265691;61;20371;-60
2022/08/13 10:19:20;0.00;0.00;0.62;0.00;0.00;0.62;8.60;5.23;;;30.80;25.20;;;;;;2265751;61;20369;-60
2022/08/13 10:22:06;0.00;0.00;0.62;0.00;0.00;0.62;6.93;4.80;;;30.80;25.20;;;;;;2265673;61;20431;-60
2022/08/13 10:24:51;0.00;0.00;0.62;0.00;0.00;0.62;5.17;4.77;;;30.90;25.40;;;;;;2266070;61;20411;-60
2022/08/13 10:27:37;0.00;0.00;0.62;0.00;0.00;0.62;5.00;4.60;;;30.90;25.40;;;;;;2265646;61;20357;-61
2022/08/13 10:30:24;0.00;0.00;0.62;0.00;0.00;0.62;7.33;4.67;;;30.90;25.40;;;;;;2265590;61;20580;-60
2022/08/13 10:33:12;0.00;0.00;0.62;0.00;0.00;0.62;7.93;5.63;;;30.90;25.40;;;;;;2266145;61;20389;-60
2022/08/13 10:35:58;0.00;0.00;0.62;0.00;0.00;0.62;5.10;4.70;;;30.90;25.40;;;;;;2265349;61;20583;-60
2022/08/13 10:38:42;0.00;0.00;0.62;0.00;0.00;0.62;5.70;5.20;;;31.00;25.40;;;;;;2265678;61;20360;-60
2022/08/13 10:41:27;0.00;0.00;0.62;0.00;0.00;0.62;5.03;4.53;;;31.00;25.40;;;;;;2265657;61;20389;-60
2022/08/13 10:44:13;0.00;0.00;0.62;0.00;0.00;0.62;5.63;4.70;;;31.00;25.40;;;;;;2265531;61;20365;-60
2022/08/13 10:46:59;0.00;0.00;0.62;0.00;0.00;0.62;5.70;5.10;;;31.00;25.40;;;;;;2265690;61;20684;-61
2022/08/13 10:49:49;0.00;0.00;0.62;0.00;0.00;0.62;5.57;5.07;;;31.00;25.40;;;;;;2265543;61;20369;-61
2022/08/13 10:52:34;0.00;0.00;0.62;0.00;0.00;0.62;5.60;5.17;;;31.00;25.40;;;;;;2265501;61;20381;-60
2022/08/13 10:55:18;0.00;0.00;0.62;0.00;0.00;0.62;6.30;5.70;;;31.10;25.50;;;;;;2266136;61;20736;-61
2022/08/13 10:58:13;0.00;0.00;0.62;0.00;0.00;0.62;5.80;5.30;;;31.10;25.50;;;;;;2265151;61;20621;-60
2022/08/13 11:01:03;0.00;0.00;0.62;0.00;0.00;0.62;6.70;5.70;;;31.10;25.50;;;;;;2265723;61;20353;-60
2022/08/13 11:03:48;0.00;0.00;0.62;0.00;0.00;0.62;5.30;4.90;;;31.10;25.50;;;;;;2265641;61;20433;-61
2022/08/13 11:06:36;0.00;0.00;0.62;0.00;0.00;0.62;4.90;4.50;;;31.20;25.50;;;;;;2265413;61;20403;-62
2022/08/13 11:09:24;0.00;0.00;0.62;0.00;0.00;0.62;6.10;5.60;;;31.20;25.50;;;;;;2265797;61;20752;-61
2022/08/13 11:12:10;0.00;0.00;0.62;0.00;0.00;0.62;6.10;5.17;;;31.20;25.50;;;;;;2264707;61;20392;-60